sensor_id;sensor_type;location;lat;lon;timestamp;temperature;humidity
51867;DHT22;52862;52.504;13.480;2023-05-16T00:00:49;14.60;99.90
51867;DHT22;52862;52.504;13.480;2023-05-16T00:03:18;14.60;99.90
51867;DHT22;52862;52.504;13.480;2023-05-16T00:05:45;14.60;99.90
51867;DHT22;52862;52.504;13.480;2023-05-16T00:08:11;14.60;99.90
51867;DHT22;52862;52.504;13.480;2023-05-16T00:13:05;14.60;99.90
51867;DHT22;52862;52.504;13.480;2023-05-16T00:15:33;14.60;99.90
51867;DHT22;52862;52.504;13.480;2023-05-16T00:17:59;14.70;99.90
51867;DHT22;52862;52.504;13.480;2023-05-16T00:20:27;14.70;99.90
51867;DHT22;52862;52.504;13.480;2023-05-16T00:22:54;14.70;99.90
51867;DHT22;52862;52.504;13.480;2023-05-16T00:25:22;14.70;99.90
51867;DHT22;52862;52.504;13.480;2023-05-16T00:27:49;14.80;99.90
51867;DHT22;52862;52.504;13.480;2023-05-16T00:30:16;14.70;99.90
51867;DHT22;52862;52.504;13.480;2023-05-16T00:32:43;14.60;99.90
51867;DHT22;52862;52.504;13.480;2023-05-16T00:35:10;14.50;99.90
51867;DHT22;52862;52.504;13.480;2023-05-16T00:37:37;14.50;99.90
51867;DHT22;52862;52.504;13.480;2023-05-16T00:40:05;14.40;99.90
51867;DHT22;52862;52.504;13.480;2023-05-16T00:42:32;14.40;99.90
51867;DHT22;52862;52.504;13.480;2023-05-16T00:44:59;14.40;99.90
51867;DHT22;52862;52.504;13.480;2023-05-16T00:47:26;14.40;99.90
51867;DHT22;52862;52.504;13.480;2023-05-16T00:49:53;14.40;99.90
51867;DHT22;52862;52.504;13.480;2023-05-16T00:52:20;14.30;99.90
51867;DHT22;52862;52.504;13.480;2023-05-16T00:54:47;14.30;99.90
51867;DHT22;52862;52.504;13.480;2023-05-16T00:57:14;14.30;99.90
51867;DHT22;52862;52.504;13.480;2023-05-16T00:59:42;14.20;99.90
51867;DHT22;52862;52.504;13.480;2023-05-16T01:04:36;14.10;99.90
51867;DHT22;52862;52.504;13.480;2023-05-16T01:07:04;14.10;99.90
51867;DHT22;52862;52.504;13.480;2023-05-16T01:09:31;14.10;99.90
51867;DHT22;52862;52.504;13.480;2023-05-16T01:12:04;14.00;99.90
51867;DHT22;52862;52.504;13.480;2023-05-16T01:14:39;14.00;99.90
51867;DHT22;52862;52.504;13.480;2023-05-16T01:17:15;13.80;99.90
51867;DHT22;52862;52.504;13.480;2023-05-16T01:19:59;14.00;99.90
51867;DHT22;52862;52.504;13.480;2023-05-16T01:22:38;13.70;99.90
51867;DHT22;52862;52.504;13.480;2023-05-16T01:25:25;13.60;99.90
51867;DHT22;52862;52.504;13.480;2023-05-16T01:27:56;13.70;99.90
51867;DHT22;52862;52.504;13.480;2023-05-16T01:30:24;13.60;99.90
51867;DHT22;52862;52.504;13.480;2023-05-16T01:32:51;13.80;99.90
51867;DHT22;52862;52.504;13.480;2023-05-16T01:35:17;13.60;99.90
51867;DHT22;52862;52.504;13.480;2023-05-16T01:37:47;13.40;99.90
51867;DHT22;52862;52.504;13.480;2023-05-16T01:40:20;13.40;99.90
51867;DHT22;52862;52.504;13.480;2023-05-16T01:42:51;13.90;99.90
51867;DHT22;52862;52.504;13.480;2023-05-16T01:45:25;13.30;99.90
51867;DHT22;52862;52.504;13.480;2023-05-16T01:47:59;13.20;99.90
51867;DHT22;52862;52.504;13.480;2023-05-16T01:50:32;13.30;99.90
51867;DHT22;52862;52.504;13.480;2023-05-16T01:53:05;13.20;99.90
51867;DHT22;52862;52.504;13.480;2023-05-16T01:55:43;13.20;99.90
51867;DHT22;52862;52.504;13.480;2023-05-16T01:58:11;13.10;99.90
51867;DHT22;52862;52.504;13.480;2023-05-16T02:00:40;13.10;99.90
51867;DHT22;52862;52.504;13.480;2023-05-16T02:03:07;13.00;99.90
51867;DHT22;52862;52.504;13.480;2023-05-16T02:05:34;13.00;99.90
51867;DHT22;52862;52.504;13.480;2023-05-16T02:08:01;12.90;99.90
51867;DHT22;52862;52.504;13.480;2023-05-16T02:10:27;12.90;99.90
51867;DHT22;52862;52.504;13.480;2023-05-16T02:12:54;12.90;99.90
51867;DHT22;52862;52.504;13.480;2023-05-16T02:15:21;12.80;99.90
51867;DHT22;52862;52.504;13.480;2023-05-16T02:17:48;12.90;99.90
51867;DHT22;52862;52.504;13.480;2023-05-16T02:20:15;12.70;99.90
51867;DHT22;52862;52.504;13.480;2023-05-16T02:22:42;12.70;99.90
51867;DHT22;52862;52.504;13.480;2023-05-16T02:25:13;12.60;99.90
51867;DHT22;52862;52.504;13.480;2023-05-16T02:27:40;12.50;99.90
51867;DHT22;52862;52.504;13.480;2023-05-16T02:30:08;12.60;99.90
51867;DHT22;52862;52.504;13.480;2023-05-16T02:32:35;12.50;99.90
51867;DHT22;52862;52.504;13.480;2023-05-16T02:35:04;12.40;99.90
51867;DHT22;52862;52.504;13.480;2023-05-16T02:37:30;12.50;99.90
51867;DHT22;52862;52.504;13.480;2023-05-16T02:39:57;12.30;99.90
51867;DHT22;52862;52.504;13.480;2023-05-16T02:42:25;12.40;99.90
51867;DHT22;52862;52.504;13.480;2023-05-16T02:44:52;12.20;99.90
51867;DHT22;52862;52.504;13.480;2023-05-16T02:47:19;12.10;99.90
51867;DHT22;52862;52.504;13.480;2023-05-16T02:49:46;12.40;99.90
51867;DHT22;52862;52.504;13.480;2023-05-16T02:52:13;12.20;99.90
51867;DHT22;52862;52.504;13.480;2023-05-16T02:54:40;12.10;99.90
51867;DHT22;52862;52.504;13.480;2023-05-16T02:57:07;12.10;99.90
51867;DHT22;52862;52.504;13.480;2023-05-16T02:59:34;12.10;99.90
51867;DHT22;52862;52.504;13.480;2023-05-16T03:02:01;12.10;99.90
51867;DHT22;52862;52.504;13.480;2023-05-16T03:04:29;12.20;99.90
51867;DHT22;52862;52.504;13.480;2023-05-16T03:06:55;12.30;99.90
51867;DHT22;52862;52.504;13.480;2023-05-16T03:09:23;12.10;99.90
51867;DHT22;52862;52.504;13.480;2023-05-16T03:11:49;12.10;99.90
51867;DHT22;52862;52.504;13.480;2023-05-16T03:14:16;12.00;99.90
51867;DHT22;52862;52.504;13.480;2023-05-16T03:16:43;11.80;99.90
51867;DHT22;52862;52.504;13.480;2023-05-16T03:19:10;12.10;99.90
51867;DHT22;52862;52.504;13.480;2023-05-16T03:21:37;11.70;99.90
51867;DHT22;52862;52.504;13.480;2023-05-16T03:24:04;12.10;99.90
51867;DHT22;52862;52.504;13.480;2023-05-16T03:26:32;12.20;99.90
51867;DHT22;52862;52.504;13.480;2023-05-16T03:28:59;12.30;99.90
51867;DHT22;52862;52.504;13.480;2023-05-16T03:31:26;11.90;99.90
51867;DHT22;52862;52.504;13.480;2023-05-16T03:33:52;12.10;99.90
51867;DHT22;52862;52.504;13.480;2023-05-16T03:36:20;12.20;99.90
51867;DHT22;52862;52.504;13.480;2023-05-16T03:38:47;12.20;99.90
51867;DHT22;52862;52.504;13.480;2023-05-16T03:41:14;12.20;99.90
51867;DHT22;52862;52.504;13.480;2023-05-16T03:43:42;12.10;99.90
51867;DHT22;52862;52.504;13.480;2023-05-16T03:46:08;12.00;99.90
51867;DHT22;52862;52.504;13.480;2023-05-16T03:48:35;12.00;99.90
51867;DHT22;52862;52.504;13.480;2023-05-16T03:51:02;11.90;99.90
51867;DHT22;52862;52.504;13.480;2023-05-16T03:53:29;11.90;99.90
51867;DHT22;52862;52.504;13.480;2023-05-16T03:55:55;11.90;99.90
51867;DHT22;52862;52.504;13.480;2023-05-16T03:58:22;11.90;99.90
51867;DHT22;52862;52.504;13.480;2023-05-16T04:00:49;11.70;99.90
51867;DHT22;52862;52.504;13.480;2023-05-16T04:03:16;11.60;99.90
51867;DHT22;52862;52.504;13.480;2023-05-16T04:05:43;11.70;99.90
51867;DHT22;52862;52.504;13.480;2023-05-16T04:08:10;11.80;99.90
51867;DHT22;52862;52.504;13.480;2023-05-16T04:10:36;11.80;99.90
51867;DHT22;52862;52.504;13.480;2023-05-16T04:13:03;11.60;99.90
51867;DHT22;52862;52.504;13.480;2023-05-16T04:15:30;11.70;99.90
51867;DHT22;52862;52.504;13.480;2023-05-16T04:17:57;11.70;99.90
51867;DHT22;52862;52.504;13.480;2023-05-16T04:20:24;11.70;99.90
51867;DHT22;52862;52.504;13.480;2023-05-16T04:22:51;11.70;99.90
51867;DHT22;52862;52.504;13.480;2023-05-16T04:25:18;11.70;99.90
51867;DHT22;52862;52.504;13.480;2023-05-16T04:27:45;11.70;99.90
51867;DHT22;52862;52.504;13.480;2023-05-16T04:30:12;11.70;99.90
51867;DHT22;52862;52.504;13.480;2023-05-16T04:32:39;11.30;99.90
51867;DHT22;52862;52.504;13.480;2023-05-16T04:35:07;11.70;99.90
51867;DHT22;52862;52.504;13.480;2023-05-16T04:37:34;11.60;99.90
51867;DHT22;52862;52.504;13.480;2023-05-16T04:40:01;11.50;99.90
51867;DHT22;52862;52.504;13.480;2023-05-16T04:42:28;11.50;99.90
51867;DHT22;52862;52.504;13.480;2023-05-16T04:44:55;11.40;99.90
51867;DHT22;52862;52.504;13.480;2023-05-16T04:47:22;11.40;99.90
51867;DHT22;52862;52.504;13.480;2023-05-16T04:49:48;11.80;99.90
51867;DHT22;52862;52.504;13.480;2023-05-16T04:52:16;11.40;99.90
51867;DHT22;52862;52.504;13.480;2023-05-16T04:54:43;11.50;99.90
51867;DHT22;52862;52.504;13.480;2023-05-16T04:57:09;11.50;99.90
51867;DHT22;52862;52.504;13.480;2023-05-16T04:59:36;11.50;99.90
51867;DHT22;52862;52.504;13.480;2023-05-16T05:02:03;11.40;99.90
51867;DHT22;52862;52.504;13.480;2023-05-16T05:04:30;11.40;99.90
51867;DHT22;52862;52.504;13.480;2023-05-16T05:06:57;11.40;99.90
51867;DHT22;52862;52.504;13.480;2023-05-16T05:09:25;11.60;99.90
51867;DHT22;52862;52.504;13.480;2023-05-16T05:11:52;11.60;99.90
51867;DHT22;52862;52.504;13.480;2023-05-16T05:14:19;11.30;99.90
51867;DHT22;52862;52.504;13.480;2023-05-16T05:16:45;11.30;99.90
51867;DHT22;52862;52.504;13.480;2023-05-16T05:19:12;11.30;99.90
51867;DHT22;52862;52.504;13.480;2023-05-16T05:21:39;11.30;99.90
51867;DHT22;52862;52.504;13.480;2023-05-16T05:24:06;11.30;99.90
51867;DHT22;52862;52.504;13.480;2023-05-16T05:26:33;11.30;99.90
51867;DHT22;52862;52.504;13.480;2023-05-16T05:29:00;11.30;99.90
51867;DHT22;52862;52.504;13.480;2023-05-16T05:31:31;11.30;99.90
51867;DHT22;52862;52.504;13.480;2023-05-16T05:33:58;11.10;99.90
51867;DHT22;52862;52.504;13.480;2023-05-16T05:36:25;11.40;99.90
51867;DHT22;52862;52.504;13.480;2023-05-16T05:38:52;11.20;99.90
51867;DHT22;52862;52.504;13.480;2023-05-16T05:41:19;13.50;99.90
51867;DHT22;52862;52.504;13.480;2023-05-16T05:43:47;11.40;99.90
51867;DHT22;52862;52.504;13.480;2023-05-16T05:46:15;11.40;99.90
51867;DHT22;52862;52.504;13.480;2023-05-16T05:48:43;11.50;99.90
51867;DHT22;52862;52.504;13.480;2023-05-16T05:51:10;11.70;99.90
51867;DHT22;52862;52.504;13.480;2023-05-16T05:53:39;11.40;99.90
51867;DHT22;52862;52.504;13.480;2023-05-16T05:56:06;11.40;99.90
51867;DHT22;52862;52.504;13.480;2023-05-16T05:58:32;11.40;99.90
51867;DHT22;52862;52.504;13.480;2023-05-16T06:01:00;11.40;99.90
51867;DHT22;52862;52.504;13.480;2023-05-16T06:03:27;11.10;99.90
51867;DHT22;52862;52.504;13.480;2023-05-16T06:05:54;11.30;99.90
51867;DHT22;52862;52.504;13.480;2023-05-16T06:08:21;11.40;99.90
51867;DHT22;52862;52.504;13.480;2023-05-16T06:10:48;11.50;99.90
51867;DHT22;52862;52.504;13.480;2023-05-16T06:13:14;11.50;99.90
51867;DHT22;52862;52.504;13.480;2023-05-16T06:15:41;11.50;99.90
51867;DHT22;52862;52.504;13.480;2023-05-16T06:18:08;11.40;99.90
51867;DHT22;52862;52.504;13.480;2023-05-16T06:20:35;11.50;99.90
51867;DHT22;52862;52.504;13.480;2023-05-16T06:23:02;11.50;99.90
51867;DHT22;52862;52.504;13.480;2023-05-16T06:25:28;11.50;99.90
51867;DHT22;52862;52.504;13.480;2023-05-16T06:27:55;11.60;99.90
51867;DHT22;52862;52.504;13.480;2023-05-16T06:30:22;11.60;99.90
51867;DHT22;52862;52.504;13.480;2023-05-16T06:32:49;11.20;99.90
51867;DHT22;52862;52.504;13.480;2023-05-16T06:35:16;11.60;99.90
51867;DHT22;52862;52.504;13.480;2023-05-16T06:37:43;11.70;99.90
51867;DHT22;52862;52.504;13.480;2023-05-16T06:40:10;11.40;99.90
51867;DHT22;52862;52.504;13.480;2023-05-16T06:42:38;10.00;99.90
51867;DHT22;52862;52.504;13.480;2023-05-16T06:45:06;11.60;99.90
51867;DHT22;52862;52.504;13.480;2023-05-16T06:47:32;11.70;99.90
51867;DHT22;52862;52.504;13.480;2023-05-16T06:49:59;11.60;99.90
51867;DHT22;52862;52.504;13.480;2023-05-16T06:52:27;11.70;99.90
51867;DHT22;52862;52.504;13.480;2023-05-16T06:54:53;11.80;99.90
51867;DHT22;52862;52.504;13.480;2023-05-16T06:57:20;11.90;99.90
51867;DHT22;52862;52.504;13.480;2023-05-16T06:59:47;11.70;99.90
51867;DHT22;52862;52.504;13.480;2023-05-16T07:02:14;11.80;99.90
51867;DHT22;52862;52.504;13.480;2023-05-16T07:04:40;11.90;99.90
51867;DHT22;52862;52.504;13.480;2023-05-16T07:07:07;11.90;99.90
51867;DHT22;52862;52.504;13.480;2023-05-16T07:09:37;11.80;99.90
51867;DHT22;52862;52.504;13.480;2023-05-16T07:12:05;11.70;99.90
51867;DHT22;52862;52.504;13.480;2023-05-16T07:14:31;11.70;99.90
51867;DHT22;52862;52.504;13.480;2023-05-16T07:16:58;11.80;99.90
51867;DHT22;52862;52.504;13.480;2023-05-16T07:19:25;11.90;99.90
51867;DHT22;52862;52.504;13.480;2023-05-16T07:21:52;11.60;99.90
51867;DHT22;52862;52.504;13.480;2023-05-16T07:24:19;12.10;99.90
51867;DHT22;52862;52.504;13.480;2023-05-16T07:26:47;12.10;99.90
51867;DHT22;52862;52.504;13.480;2023-05-16T07:29:13;12.20;99.90
51867;DHT22;52862;52.504;13.480;2023-05-16T07:31:40;12.20;99.90
51867;DHT22;52862;52.504;13.480;2023-05-16T07:34:08;12.00;99.90
51867;DHT22;52862;52.504;13.480;2023-05-16T07:36:35;12.10;99.90
51867;DHT22;52862;52.504;13.480;2023-05-16T07:39:02;12.30;99.90
51867;DHT22;52862;52.504;13.480;2023-05-16T07:41:29;12.50;99.90
51867;DHT22;52862;52.504;13.480;2023-05-16T07:43:57;12.50;99.90
51867;DHT22;52862;52.504;13.480;2023-05-16T07:46:23;12.40;99.90
51867;DHT22;52862;52.504;13.480;2023-05-16T07:48:50;12.40;99.90
51867;DHT22;52862;52.504;13.480;2023-05-16T07:51:17;12.50;99.90
51867;DHT22;52862;52.504;13.480;2023-05-16T07:53:44;12.50;99.90
51867;DHT22;52862;52.504;13.480;2023-05-16T07:56:11;12.60;99.90
51867;DHT22;52862;52.504;13.480;2023-05-16T07:58:38;12.60;99.90
51867;DHT22;52862;52.504;13.480;2023-05-16T08:01:05;12.40;99.90
51867;DHT22;52862;52.504;13.480;2023-05-16T08:03:32;12.60;99.90
51867;DHT22;52862;52.504;13.480;2023-05-16T08:06:00;12.40;99.90
51867;DHT22;52862;52.504;13.480;2023-05-16T08:08:27;12.40;99.90
51867;DHT22;52862;52.504;13.480;2023-05-16T08:10:55;12.50;99.90
51867;DHT22;52862;52.504;13.480;2023-05-16T08:13:21;12.50;99.90
51867;DHT22;52862;52.504;13.480;2023-05-16T08:15:48;12.50;99.90
51867;DHT22;52862;52.504;13.480;2023-05-16T08:18:16;12.40;99.90
51867;DHT22;52862;52.504;13.480;2023-05-16T08:20:45;12.20;99.90
51867;DHT22;52862;52.504;13.480;2023-05-16T08:23:13;12.10;99.90
51867;DHT22;52862;52.504;13.480;2023-05-16T08:25:40;12.10;99.90
51867;DHT22;52862;52.504;13.480;2023-05-16T08:28:07;12.10;99.90
51867;DHT22;52862;52.504;13.480;2023-05-16T08:30:34;12.10;99.90
51867;DHT22;52862;52.504;13.480;2023-05-16T08:33:00;12.00;99.90
51867;DHT22;52862;52.504;13.480;2023-05-16T08:35:37;12.00;99.90
51867;DHT22;52862;52.504;13.480;2023-05-16T08:38:07;12.00;99.90
51867;DHT22;52862;52.504;13.480;2023-05-16T08:40:35;12.10;99.90
51867;DHT22;52862;52.504;13.480;2023-05-16T08:43:02;12.10;99.90
51867;DHT22;52862;52.504;13.480;2023-05-16T08:45:30;12.20;99.90
51867;DHT22;52862;52.504;13.480;2023-05-16T08:48:00;12.20;99.90
51867;DHT22;52862;52.504;13.480;2023-05-16T08:50:30;12.30;99.90
51867;DHT22;52862;52.504;13.480;2023-05-16T08:52:59;12.40;99.90
51867;DHT22;52862;52.504;13.480;2023-05-16T08:55:31;12.50;99.90
51867;DHT22;52862;52.504;13.480;2023-05-16T08:57:59;12.50;99.90
51867;DHT22;52862;52.504;13.480;2023-05-16T09:00:28;12.30;99.90
51867;DHT22;52862;52.504;13.480;2023-05-16T09:02:55;12.40;99.90
51867;DHT22;52862;52.504;13.480;2023-05-16T09:05:22;12.50;99.90
51867;DHT22;52862;52.504;13.480;2023-05-16T09:07:49;12.20;99.90
51867;DHT22;52862;52.504;13.480;2023-05-16T09:10:16;12.30;99.90
51867;DHT22;52862;52.504;13.480;2023-05-16T09:12:44;12.30;99.90
51867;DHT22;52862;52.504;13.480;2023-05-16T09:15:11;12.50;99.90
51867;DHT22;52862;52.504;13.480;2023-05-16T09:17:41;12.70;99.90
51867;DHT22;52862;52.504;13.480;2023-05-16T09:20:11;13.00;99.90
51867;DHT22;52862;52.504;13.480;2023-05-16T09:22:39;12.60;99.90
51867;DHT22;52862;52.504;13.480;2023-05-16T09:25:07;12.70;99.90
51867;DHT22;52862;52.504;13.480;2023-05-16T09:27:41;12.70;99.90
51867;DHT22;52862;52.504;13.480;2023-05-16T09:30:09;12.80;99.90
51867;DHT22;52862;52.504;13.480;2023-05-16T09:32:36;12.90;99.90
51867;DHT22;52862;52.504;13.480;2023-05-16T09:35:10;13.10;99.90
51867;DHT22;52862;52.504;13.480;2023-05-16T09:37:37;12.80;99.90
51867;DHT22;52862;52.504;13.480;2023-05-16T09:40:04;12.80;99.90
51867;DHT22;52862;52.504;13.480;2023-05-16T09:42:32;12.70;99.90
51867;DHT22;52862;52.504;13.480;2023-05-16T09:44:59;12.60;99.90
51867;DHT22;52862;52.504;13.480;2023-05-16T09:47:29;12.60;99.90
51867;DHT22;52862;52.504;13.480;2023-05-16T09:49:56;12.70;99.90
51867;DHT22;52862;52.504;13.480;2023-05-16T09:52:25;12.70;99.90
51867;DHT22;52862;52.504;13.480;2023-05-16T09:54:53;13.00;99.90
51867;DHT22;52862;52.504;13.480;2023-05-16T09:57:20;13.10;99.90
51867;DHT22;52862;52.504;13.480;2023-05-16T09:59:49;12.70;99.90
51867;DHT22;52862;52.504;13.480;2023-05-16T10:02:16;13.00;99.90
51867;DHT22;52862;52.504;13.480;2023-05-16T10:04:43;12.90;99.90
51867;DHT22;52862;52.504;13.480;2023-05-16T10:07:10;12.80;99.90
51867;DHT22;52862;52.504;13.480;2023-05-16T10:09:39;12.80;99.90
51867;DHT22;52862;52.504;13.480;2023-05-16T10:12:07;12.70;99.90
51867;DHT22;52862;52.504;13.480;2023-05-16T10:14:38;12.60;99.90
51867;DHT22;52862;52.504;13.480;2023-05-16T10:17:07;12.60;99.90
51867;DHT22;52862;52.504;13.480;2023-05-16T10:19:37;12.90;99.90
51867;DHT22;52862;52.504;13.480;2023-05-16T10:22:06;13.00;99.90
51867;DHT22;52862;52.504;13.480;2023-05-16T10:24:38;12.90;99.90
51867;DHT22;52862;52.504;13.480;2023-05-16T10:27:07;12.70;99.90
51867;DHT22;52862;52.504;13.480;2023-05-16T10:29:36;12.70;99.90
51867;DHT22;52862;52.504;13.480;2023-05-16T10:32:20;12.80;99.90
51867;DHT22;52862;52.504;13.480;2023-05-16T10:34:49;13.00;99.90
51867;DHT22;52862;52.504;13.480;2023-05-16T10:37:17;12.70;99.90
51867;DHT22;52862;52.504;13.480;2023-05-16T10:39:44;12.80;99.90
51867;DHT22;52862;52.504;13.480;2023-05-16T10:42:11;12.60;99.90
51867;DHT22;52862;52.504;13.480;2023-05-16T10:44:43;12.80;99.90
51867;DHT22;52862;52.504;13.480;2023-05-16T10:47:28;13.20;99.90
51867;DHT22;52862;52.504;13.480;2023-05-16T10:49:55;13.70;99.90
51867;DHT22;52862;52.504;13.480;2023-05-16T10:52:32;13.40;99.90
51867;DHT22;52862;52.504;13.480;2023-05-16T10:55:01;13.30;99.90
51867;DHT22;52862;52.504;13.480;2023-05-16T10:57:32;13.20;99.90
51867;DHT22;52862;52.504;13.480;2023-05-16T10:59:59;13.00;99.90
51867;DHT22;52862;52.504;13.480;2023-05-16T11:02:28;12.80;99.90
51867;DHT22;52862;52.504;13.480;2023-05-16T11:04:57;12.70;99.90
51867;DHT22;52862;52.504;13.480;2023-05-16T11:07:25;12.60;99.90
51867;DHT22;52862;52.504;13.480;2023-05-16T11:10:06;12.40;99.90
51867;DHT22;52862;52.504;13.480;2023-05-16T11:12:44;12.40;99.90
51867;DHT22;52862;52.504;13.480;2023-05-16T11:15:24;12.10;99.90
51867;DHT22;52862;52.504;13.480;2023-05-16T11:18:03;12.20;99.90
51867;DHT22;52862;52.504;13.480;2023-05-16T11:20:33;12.40;99.90
51867;DHT22;52862;52.504;13.480;2023-05-16T11:23:19;12.70;99.90
51867;DHT22;52862;52.504;13.480;2023-05-16T11:25:52;13.20;99.90
51867;DHT22;52862;52.504;13.480;2023-05-16T11:28:20;13.20;99.90
51867;DHT22;52862;52.504;13.480;2023-05-16T11:30:51;13.30;99.90
51867;DHT22;52862;52.504;13.480;2023-05-16T11:33:20;13.30;99.90
51867;DHT22;52862;52.504;13.480;2023-05-16T11:36:01;13.40;99.90
51867;DHT22;52862;52.504;13.480;2023-05-16T11:38:41;13.70;99.90
51867;DHT22;52862;52.504;13.480;2023-05-16T11:41:08;13.30;99.90
51867;DHT22;52862;52.504;13.480;2023-05-16T11:43:39;13.20;99.90
51867;DHT22;52862;52.504;13.480;2023-05-16T11:46:10;12.90;99.90
51867;DHT22;52862;52.504;13.480;2023-05-16T11:48:37;13.00;99.90
51867;DHT22;52862;52.504;13.480;2023-05-16T11:51:04;13.00;99.90
51867;DHT22;52862;52.504;13.480;2023-05-16T11:53:32;13.10;99.90
51867;DHT22;52862;52.504;13.480;2023-05-16T11:55:59;13.30;99.90
51867;DHT22;52862;52.504;13.480;2023-05-16T11:58:27;13.60;99.90
51867;DHT22;52862;52.504;13.480;2023-05-16T12:00:54;14.00;99.90
51867;DHT22;52862;52.504;13.480;2023-05-16T12:03:21;14.10;99.90
51867;DHT22;52862;52.504;13.480;2023-05-16T12:05:49;14.40;99.90
51867;DHT22;52862;52.504;13.480;2023-05-16T12:08:19;14.60;99.90
51867;DHT22;52862;52.504;13.480;2023-05-16T12:10:48;14.40;99.90
51867;DHT22;52862;52.504;13.480;2023-05-16T12:13:16;14.30;99.90
51867;DHT22;52862;52.504;13.480;2023-05-16T12:15:46;14.20;99.90
51867;DHT22;52862;52.504;13.480;2023-05-16T12:18:14;14.20;99.90
51867;DHT22;52862;52.504;13.480;2023-05-16T12:20:42;14.10;99.90
51867;DHT22;52862;52.504;13.480;2023-05-16T12:23:10;14.00;99.90
51867;DHT22;52862;52.504;13.480;2023-05-16T12:25:39;13.90;99.90
51867;DHT22;52862;52.504;13.480;2023-05-16T12:28:12;13.80;99.90
51867;DHT22;52862;52.504;13.480;2023-05-16T12:30:40;14.00;99.90
51867;DHT22;52862;52.504;13.480;2023-05-16T12:33:09;14.20;99.90
51867;DHT22;52862;52.504;13.480;2023-05-16T12:35:38;14.30;99.90
51867;DHT22;52862;52.504;13.480;2023-05-16T12:38:05;14.40;99.90
51867;DHT22;52862;52.504;13.480;2023-05-16T12:40:33;14.30;99.90
51867;DHT22;52862;52.504;13.480;2023-05-16T12:43:02;14.40;99.90
51867;DHT22;52862;52.504;13.480;2023-05-16T12:45:29;14.60;99.90
51867;DHT22;52862;52.504;13.480;2023-05-16T12:48:03;14.80;99.90
51867;DHT22;52862;52.504;13.480;2023-05-16T12:50:32;14.80;99.90
51867;DHT22;52862;52.504;13.480;2023-05-16T12:53:01;15.00;99.90
51867;DHT22;52862;52.504;13.480;2023-05-16T12:55:29;15.10;99.90
51867;DHT22;52862;52.504;13.480;2023-05-16T12:57:56;15.30;99.90
51867;DHT22;52862;52.504;13.480;2023-05-16T13:00:24;15.50;99.90
51867;DHT22;52862;52.504;13.480;2023-05-16T13:02:51;15.80;99.90
51867;DHT22;52862;52.504;13.480;2023-05-16T13:05:18;16.00;99.90
51867;DHT22;52862;52.504;13.480;2023-05-16T13:07:48;16.30;99.90
51867;DHT22;52862;52.504;13.480;2023-05-16T13:10:17;16.00;99.90
51867;DHT22;52862;52.504;13.480;2023-05-16T13:12:44;16.40;99.90
51867;DHT22;52862;52.504;13.480;2023-05-16T13:15:11;16.80;99.90
51867;DHT22;52862;52.504;13.480;2023-05-16T13:17:40;17.50;99.90
51867;DHT22;52862;52.504;13.480;2023-05-16T13:20:07;17.80;99.90
51867;DHT22;52862;52.504;13.480;2023-05-16T13:22:35;17.50;99.90
51867;DHT22;52862;52.504;13.480;2023-05-16T13:25:02;17.90;99.90
51867;DHT22;52862;52.504;13.480;2023-05-16T13:27:29;18.40;99.90
51867;DHT22;52862;52.504;13.480;2023-05-16T13:29:56;19.00;99.70
51867;DHT22;52862;52.504;13.480;2023-05-16T13:32:23;19.00;98.70
51867;DHT22;52862;52.504;13.480;2023-05-16T13:34:51;18.40;99.30
51867;DHT22;52862;52.504;13.480;2023-05-16T13:37:18;18.40;99.00
51867;DHT22;52862;52.504;13.480;2023-05-16T13:39:44;18.70;97.80
51867;DHT22;52862;52.504;13.480;2023-05-16T13:42:11;19.00;97.10
51867;DHT22;52862;52.504;13.480;2023-05-16T13:44:38;19.40;96.50
51867;DHT22;52862;52.504;13.480;2023-05-16T13:47:05;19.40;95.60
51867;DHT22;52862;52.504;13.480;2023-05-16T13:49:32;19.70;95.30
51867;DHT22;52862;52.504;13.480;2023-05-16T13:51:59;20.10;95.70
51867;DHT22;52862;52.504;13.480;2023-05-16T13:54:26;20.10;94.40
51867;DHT22;52862;52.504;13.480;2023-05-16T13:56:54;18.40;95.70
51867;DHT22;52862;52.504;13.480;2023-05-16T13:59:21;18.20;97.10
51867;DHT22;52862;52.504;13.480;2023-05-16T14:02:08;17.80;95.50
51867;DHT22;52862;52.504;13.480;2023-05-16T14:04:35;17.20;96.00
51867;DHT22;52862;52.504;13.480;2023-05-16T14:07:02;17.00;95.50
51867;DHT22;52862;52.504;13.480;2023-05-16T14:09:29;16.80;96.10
51867;DHT22;52862;52.504;13.480;2023-05-16T14:11:56;17.00;96.30
51867;DHT22;52862;52.504;13.480;2023-05-16T14:14:23;17.90;95.30
51867;DHT22;52862;52.504;13.480;2023-05-16T14:16:50;20.10;91.90
51867;DHT22;52862;52.504;13.480;2023-05-16T14:19:17;19.90;91.30
51867;DHT22;52862;52.504;13.480;2023-05-16T14:21:45;18.60;91.50
51867;DHT22;52862;52.504;13.480;2023-05-16T14:24:12;18.80;92.70
51867;DHT22;52862;52.504;13.480;2023-05-16T14:26:39;18.20;92.40
51867;DHT22;52862;52.504;13.480;2023-05-16T14:29:06;17.50;93.40
51867;DHT22;52862;52.504;13.480;2023-05-16T14:31:33;17.20;94.00
51867;DHT22;52862;52.504;13.480;2023-05-16T14:34:01;17.90;94.00
51867;DHT22;52862;52.504;13.480;2023-05-16T14:36:28;17.90;93.60
51867;DHT22;52862;52.504;13.480;2023-05-16T14:38:55;18.20;94.10
51867;DHT22;52862;52.504;13.480;2023-05-16T14:41:22;18.00;94.20
51867;DHT22;52862;52.504;13.480;2023-05-16T14:43:49;18.10;93.90
51867;DHT22;52862;52.504;13.480;2023-05-16T14:46:16;18.20;93.50
51867;DHT22;52862;52.504;13.480;2023-05-16T14:48:43;17.80;93.10
51867;DHT22;52862;52.504;13.480;2023-05-16T14:51:10;18.10;93.20
51867;DHT22;52862;52.504;13.480;2023-05-16T14:53:37;19.70;90.10
51867;DHT22;52862;52.504;13.480;2023-05-16T14:56:04;23.00;82.00
51867;DHT22;52862;52.504;13.480;2023-05-16T14:58:31;25.80;71.60
51867;DHT22;52862;52.504;13.480;2023-05-16T15:00:58;25.50;65.20
51867;DHT22;52862;52.504;13.480;2023-05-16T15:03:25;22.00;71.30
51867;DHT22;52862;52.504;13.480;2023-05-16T15:05:52;19.70;77.80
51867;DHT22;52862;52.504;13.480;2023-05-16T15:08:19;19.60;81.90
51867;DHT22;52862;52.504;13.480;2023-05-16T15:10:47;20.00;78.00
51867;DHT22;52862;52.504;13.480;2023-05-16T15:13:14;19.60;79.60
51867;DHT22;52862;52.504;13.480;2023-05-16T15:15:41;19.10;80.80
51867;DHT22;52862;52.504;13.480;2023-05-16T15:18:08;18.40;82.50
51867;DHT22;52862;52.504;13.480;2023-05-16T15:20:36;17.90;83.90
51867;DHT22;52862;52.504;13.480;2023-05-16T15:23:03;18.70;83.10
51867;DHT22;52862;52.504;13.480;2023-05-16T15:25:29;20.40;77.90